Terminal Aerodrome Forecast
Issued by NWS

Home | Current Version | Previous Version | Graphics & Text | Print | Product List | Glossary On
Versions: 1 2 3 4 5 6 7 8 9 10 11 12 13 14 15 16 17 18 19
000
FTUS43 KMPX 141120
TAFRNH
TAF
KRNH 141120Z 1412/1512 08008KT P6SM SCT090 BKN150
     FM141900 08008KT P6SM SHRA BKN050
     FM142000 06008KT 6SM -SHRA SCT015 BKN025
     FM150000 05012KT 5SM SHRA BR OVC015
     FM150300 03012G18KT 6SM -RA OVC007
     FM150600 34018G25KT 4SM -RA OVC015=

USA.gov is the U.S. government's official web portal to all federal, state and local government web resources and services.